KIJX/IJX METAR and TAF weather

Enter ICAO airport designator
Station Type Date Time Source
KIJX METAR 2021/10/22 18:55 UTC NOAA

KIJX 221855Z AUTO 00000KT 10SM BKN034 13/04 A3007 RMK AO2 T01310041


Station Type Date Time Source
KIJX Decoded METAR 2021/10/22 18:55 UTC NOAA

Jacksonville, Jacksonville Municipal Airport, IL, United States (KIJX) 39-46-27N 090-14-19W
Oct 22, 2021 - 02:55 PM EDT / 2021.10.22 1855 UTC
Wind: Calm:0
Visibility: 10 mile(s):0
Sky conditions: mostly cloudy
Temperature: 55.6 F (13.1 C)
Dew Point: 39.4 F (4.1 C)
Relative Humidity: 54%
Pressure (altimeter): 30.07 in. Hg (1018 hPa)
ob: KIJX 221855Z AUTO 00000KT 10SM BKN034 13/04 A3007 RMK AO2 T01310041
cycle: 19

Station Type Date Time Source
KIJX TAF UTC NOAA

Error!

Example: see airport list